Latest Weather Observations for Cerberus

IDV60901

Issued at 4:01 pm EDT Tuesday 23 December 2014 (issued every 10 minutes, with the page automatically refreshed every 10 minutes)

About weather observations | Map of Melbourne area stations | Latest observations for Melbourne area | Other Formats
Station Details ID: 086361 Name: CERBERUS Lat: -38.36 Lon: 145.18 Height: 12.69 m
Data from the previous 72 hours. | See also: Recent months at Cerberus
Date/Time
EDT
Tmp

°C
App
Tmp
°C
Dew
Point
°C
Rel
Hum
%
Delta-T

°C
Wind Press
QNH
hPa
Press
MSL
hPa
Rain
since
9 am
mm
Dir
 
Spd
km/h
Gust
km/h
Spd
kts
Gust
kts
23/04:00pm 20.3 17.0 15.1 72 3.1 SW 26 44 14 24 1009.5 1009.5 0.0
23/03:30pm 20.2 16.7 15.6 75 2.7 SW 28 39 15 21 1009.0 1009.0 0.0
23/03:00pm 20.3 17.6 16.5 79 2.3 SSW 26 35 14 19 1008.7 1008.7 0.0
23/02:30pm 19.8 17.7 16.3 80 2.1 SSW 22 39 12 21 1008.5 1008.5 0.0
23/02:00pm 19.6 18.2 16.6 83 1.8 SSW 19 28 10 15 1008.4 1008.4 0.0
23/01:30pm 19.9 18.7 16.2 79 2.2 SSW 17 24 9 13 1008.2 1008.2 0.0
23/01:00pm 21.5 21.3 16.7 74 2.9 SSW 13 20 7 11 1008.0 1008.0 0.0
23/12:30pm 21.4 20.8 16.6 74 2.9 SSW 15 22 8 12 1008.1 1008.1 0.0
23/12:00pm 20.8 20.5 16.4 76 2.7 SSW 13 19 7 10 1008.5 1008.5 0.0
23/11:30am 20.3 20.6 16.1 77 2.5 SSW 9 17 5 9 1008.4 1008.4 0.0
23/11:00am 21.3 20.8 15.8 71 3.3 WSW 13 20 7 11 1008.2 1008.2 0.0
23/10:30am 22.8 22.4 16.1 66 4.1 W 13 19 7 10 1008.0 1008.0 0.0
23/10:00am 22.6 22.6 17.1 71 3.4 WNW 13 20 7 11 1007.6 1007.6 0.0
23/09:30am 22.1 21.9 17.7 76 2.7 NW 15 24 8 13 1007.3 1007.3 0.0
23/09:00am 21.4 23.1 18.0 81 2.1 NW 6 11 3 6 1007.2 1007.2 1.8
23/08:30am 21.6 23.9 18.6 83 1.9 W 4 9 2 5 1007.1 1007.1 1.8
23/08:00am 20.4 22.0 18.3 88 1.3 NNW 7 11 4 6 1006.9 1006.9 1.8
23/07:30am 19.5 21.9 18.0 91 0.9 N 2 6 1 3 1006.8 1006.8 1.8
23/07:00am 18.9 20.3 17.4 91 0.9 N 6 7 3 4 1006.5 1006.5 1.8
23/06:30am 18.8 20.6 17.3 91 0.9 NNE 4 6 2 3 1006.3 1006.3 1.8
23/06:00am 18.8 20.1 17.1 90 1.0 N 6 7 3 4 1006.7 1006.7 1.8
23/05:30am 18.9 20.6 17.2 90 1.0 NE 4 7 2 4 1006.4 1006.4 1.8
23/05:00am 18.9 20.5 17.0 89 1.2 NW 4 7 2 4 1006.4 1006.4 1.8
23/04:30am 19.1 20.4 17.2 89 1.2 N 6 11 3 6 1005.9 1005.9 1.6
23/04:00am 19.3 21.4 17.1 87 1.3 E 2 6 1 3 1005.3 1005.3 1.4
23/03:30am 19.7 22.2 17.3 86 1.5 CALM 0 0 0 0 1005.7 1005.7 1.2
23/03:00am 19.8 21.1 17.2 85 1.6 NW 6 13 3 7 1006.0 1006.0 1.0
23/02:30am 20.0 22.3 17.6 86 1.5 WNW 2 6 1 3 1006.5 1006.5 0.0
23/02:00am 20.1 21.9 17.3 84 1.7 NW 4 7 2 4 1006.4 1006.4 0.0
23/01:30am 20.7 22.6 17.7 83 1.8 N 4 6 2 3 1006.3 1006.3 0.0
23/01:00am 20.4 21.1 17.0 81 2.1 W 9 17 5 9 1006.2 1006.2 0.0
23/12:30am 21.3 22.0 17.9 81 2.1 E 11 15 6 8 1005.9 1005.9 0.0
23/12:00am 21.0 23.2 17.4 80 2.2 WNW 2 6 1 3 1006.5 1006.5 0.0
 
Date/Time
EDT
Tmp

°C
App
Tmp
°C
Dew
Point
°C
Rel
Hum
%
Delta-T

°C
Wind Press
QNH
hPa
Press
MSL
hPa
Rain
since
9 am
mm
Dir
 
Spd
km/h
Gust
km/h
Spd
kts
Gust
kts
22/11:30pm 21.4 23.0 17.0 76 2.7 NNW 4 9 2 5 1006.4 1006.4 0.0
22/11:00pm 22.3 24.2 16.6 70 3.5 WNW 2 6 1 3 1006.9 1006.9 0.0
22/10:30pm 22.7 23.9 16.0 66 4.0 NE 4 6 2 3 1007.1 1007.1 0.0
22/10:00pm 23.4 24.1 16.0 63 4.5 ENE 7 15 4 8 1006.6 1006.6 0.0
22/09:30pm 23.8 23.6 16.6 64 4.4 ENE 13 24 7 13 1006.4 1006.4 0.0
22/09:00pm 21.7 23.9 17.5 77 2.6 WSW 2 4 1 2 1006.8 1006.8 0.0
22/08:30pm 21.6 22.3 17.0 75 2.8 W 9 17 5 9 1006.9 1006.9 0.0
22/08:00pm 23.9 24.9 16.4 63 4.6 ESE 6 9 3 5 1006.4 1006.4 0.0
22/07:30pm 24.5 25.6 16.5 61 4.9 E 6 9 3 5 1006.4 1006.4 0.0
22/07:00pm 24.8 26.0 17.3 63 4.7 E 7 11 4 6 1006.5 1006.5 0.0
22/06:30pm 24.2 25.8 18.2 69 3.8 SE 7 13 4 7 1006.5 1006.5 0.0
22/06:00pm 24.1 24.9 18.1 69 3.8 SE 11 19 6 10 1006.7 1006.7 0.0
22/05:30pm 23.5 24.9 17.7 70 3.6 SE 7 13 4 7 1007.2 1007.2 0.0
22/05:00pm 23.3 23.9 17.7 71 3.5 SSE 11 15 6 8 1007.9 1007.9 0.0
22/04:30pm 22.9 23.6 17.1 70 3.6 S 9 13 5 7 1008.3 1008.3 0.0
22/04:00pm 22.7 23.1 17.2 71 3.4 S 11 17 6 9 1008.9 1008.9 0.0
22/03:30pm 22.0 22.0 16.3 70 3.5 S 11 19 6 10 1009.4 1009.4 0.0
22/03:00pm 21.8 21.1 16.5 72 3.2 S 15 19 8 10 1010.1 1010.1 0.0
22/02:30pm 21.5 21.1 17.1 76 2.7 SSW 15 19 8 10 1010.9 1010.9 0.0
22/02:00pm 21.4 20.6 17.2 77 2.6 SSW 17 28 9 15 1011.4 1011.4 0.0
22/01:30pm 22.5 22.5 17.2 72 3.3 SW 13 19 7 10 1011.6 1011.6 0.0
22/01:00pm 22.1 22.0 17.0 73 3.1 SW 13 19 7 10 1012.1 1012.1 0.0
22/12:30pm 22.0 22.4 16.3 70 3.5 S 9 17 5 9 1012.2 1012.2 0.0
22/12:00pm 21.3 21.9 16.7 75 2.8 SE 9 15 5 8 1012.2 1012.2 0.0
22/11:30am 19.9 19.8 16.0 78 2.3 ESE 11 19 6 10 1012.4 1012.4 0.0
22/11:00am 20.2 19.7 16.0 77 2.5 ESE 13 19 7 10 1012.9 1012.9 0.0
22/10:30am 20.0 20.3 16.0 78 2.4 SE 9 17 5 9 1013.3 1013.3 0.0
22/10:00am 19.8 20.2 16.4 81 2.0 SE 9 15 5 8 1013.3 1013.3 0.0
22/09:30am 19.1 19.7 16.7 86 1.4 SE 9 13 5 7 1013.3 1013.3 0.0
22/09:00am 17.9 18.5 15.9 88 1.2 SSE 7 11 4 6 1013.3 1013.3 0.0
22/08:30am 17.6 18.3 15.6 88 1.2 SSE 6 11 3 6 1013.3 1013.3 0.0
22/08:00am 17.1 17.7 15.3 89 1.0 SSE 6 9 3 5 1013.2 1013.2 0.0
22/07:30am 16.8 17.1 15.0 89 1.0 SSE 7 13 4 7 1013.2 1013.2 0.0
22/07:00am 16.6 16.8 14.8 89 1.0 SSE 7 13 4 7 1013.0 1013.0 0.0
22/06:30am 16.5 16.7 14.7 89 1.0 S 7 11 4 6 1012.9 1012.9 0.0
22/06:00am 16.4 16.6 14.6 89 1.0 S 7 11 4 6 1012.7 1012.7 0.0
22/05:30am 16.4 16.6 14.8 90 0.9 SSE 7 13 4 7 1012.6 1012.6 0.0
22/05:00am 16.4 16.8 14.8 90 0.9 SSE 6 11 3 6 1012.5 1012.5 0.0
22/04:30am 16.4 16.2 14.8 90 0.9 S 9 17 5 9 1012.6 1012.6 0.0
22/04:00am 16.3 15.8 14.8 91 0.9 S 11 20 6 11 1012.5 1012.5 0.0
22/03:30am 16.1 16.3 14.6 91 0.9 S 7 11 4 6 1012.7 1012.7 0.0
22/03:00am 16.2 15.6 14.7 91 0.9 S 11 20 6 11 1012.9 1012.9 0.0
22/02:30am 16.3 16.1 14.8 91 0.9 S 9 15 5 8 1013.4 1013.4 0.0
22/02:00am 16.2 16.4 14.7 91 0.9 SSW 7 11 4 6 1013.6 1013.5 0.0
22/01:30am 16.1 16.2 14.5 90 0.9 SSW 7 13 4 7 1013.9 1013.8 0.0
22/01:00am 16.4 15.9 14.8 90 0.9 SSW 11 15 6 8 1013.9 1013.8 0.0
22/12:30am 16.5 16.8 14.9 90 0.9 S 7 17 4 9 1014.2 1014.1 0.0
22/12:00am 16.7 16.7 15.1 90 0.9 S 9 13 5 7 1014.4 1014.3 0.0
 
Date/Time
EDT
Tmp

°C
App
Tmp
°C
Dew
Point
°C
Rel
Hum
%
Delta-T

°C
Wind Press
QNH
hPa
Press
MSL
hPa
Rain
since
9 am
mm
Dir
 
Spd
km/h
Gust
km/h
Spd
kts
Gust
kts
21/11:30pm 16.8 16.8 15.2 90 0.9 SSW 9 19 5 10 1014.4 1014.3 0.0
21/11:00pm 17.2 17.3 15.4 89 1.1 S 9 13 5 7 1014.5 1014.4 0.0
21/10:30pm 17.5 16.9 15.7 89 1.1 SSW 13 20 7 11 1014.2 1014.1 0.0
21/10:00pm 17.8 16.9 15.8 88 1.2 SSW 15 22 8 12 1014.0 1013.9 0.0
21/09:30pm 18.2 17.8 16.2 88 1.2 SW 13 19 7 10 1013.6 1013.5 0.0
21/09:00pm 18.3 18.2 15.9 86 1.4 SW 11 17 6 9 1013.0 1013.0 0.0
21/08:30pm 18.9 18.0 15.8 82 1.8 SW 15 20 8 11 1012.5 1012.5 0.0
21/08:00pm 19.9 19.5 15.3 75 2.7 SW 11 17 6 9 1012.2 1012.2 0.0
21/07:30pm 22.7 23.6 16.5 68 3.8 SW 7 9 4 5 1011.9 1011.9 0.0
21/07:00pm 21.7 22.9 16.9 74 2.9 SW 6 9 3 5 1011.6 1011.6 0.0
21/06:30pm 21.7 21.7 16.2 71 3.3 SW 11 15 6 8 1011.6 1011.6 0.0
21/06:00pm 23.9 23.6 16.4 63 4.6 SW 13 17 7 9 1011.4 1011.4 0.0
21/05:30pm 25.4 24.4 12.3 44 7.5 S 9 15 5 8 1011.6 1011.6 0.0
21/05:00pm 23.9 23.0 14.9 57 5.4 SSW 13 19 7 10 1011.9 1011.9 0.0
21/04:30pm 24.2 23.0 15.1 56 5.4 SSW 15 20 8 11 1012.1 1012.1 0.0
21/04:00pm 27.2 26.2 15.6 49 7.1 S 15 20 8 11 1012.0 1012.0 0.0
21/03:30pm 27.8 26.5 12.6 39 8.9 ESE 11 15 6 8 1012.2 1012.2 0.0
21/03:00pm 28.1 26.9 11.6 36 9.5 ESE 9 13 5 7 1012.5 1012.5 0.0
21/02:30pm 27.3 26.4 12.5 40 8.6 ESE 9 11 5 6 1012.8 1012.8 0.0
21/02:00pm 27.4 26.4 13.4 42 8.3 SE 11 15 6 8 1012.9 1012.9 0.0
21/01:30pm 27.8 27.5 13.3 40 8.6 E 7 13 4 7 1013.4 1013.4 0.0
21/01:00pm 25.9 25.6 13.4 46 7.3 ESE 7 13 4 7 1013.8 1013.7 0.0
21/12:30pm 25.2 25.0 11.7 43 7.7 NE 4 9 2 5 1014.2 1014.1 0.0
21/12:00pm 24.1 23.2 11.4 45 7.1 NE 7 11 4 6 1014.4 1014.3 0.0
21/11:30am 22.8 21.9 11.2 48 6.5 NE 7 13 4 7 1014.5 1014.4 0.0
21/11:00am 21.1 20.6 12.5 58 4.9 NNE 7 13 4 7 1014.6 1014.5 0.0
21/10:30am 20.5 20.4 13.9 66 3.8 NNE 7 11 4 6 1014.6 1014.5 0.0
21/10:00am 19.3 18.8 13.9 71 3.1 ENE 9 15 5 8 1014.8 1014.7 0.0
21/09:30am 18.1 17.7 14.2 78 2.2 NE 9 17 5 9 1015.0 1014.9 0.0
21/09:00am 17.0 16.5 13.9 82 1.8 NE 9 17 5 9 1015.3 1015.2 0.0
21/08:30am 16.1 15.3 13.9 87 1.2 NE 11 17 6 9 1015.1 1015.0 0.0
21/08:00am 15.5 15.1 14.2 92 0.7 NE 9 17 5 9 1014.9 1014.8 0.0
21/07:30am 13.9 14.8 12.8 93 0.6 CALM 0 0 0 0 1015.3 1015.2 0.0
21/07:00am 11.5 11.7 10.4 93 0.6 CALM 0 0 0 0 1015.3 1015.2 0.0
21/06:30am 10.0 9.4 8.9 93 0.5 S 2 4 1 2 1015.3 1015.2 0.0
21/06:00am 9.1 8.6 7.9 92 0.6 CALM 0 2 0 1 1015.1 1015.0 0.0
21/05:30am 9.0 7.7 7.8 92 0.6 S 4 6 2 3 1014.9 1014.8 0.0
21/05:00am 8.6 8.0 7.4 92 0.6 CALM 0 0 0 0 1014.4 1014.3 0.0
21/04:30am 9.2 8.7 8.0 92 0.6 CALM 0 0 0 0 1014.4 1014.3 0.0
21/04:00am 9.0 8.4 7.6 91 0.7 CALM 0 0 0 0 1014.5 1014.4 0.0
21/03:30am 9.8 9.4 8.4 91 0.7 CALM 0 0 0 0 1014.8 1014.7 0.0
21/03:00am 9.3 8.8 7.9 91 0.7 CALM 0 0 0 0 1015.3 1015.2 0.0
21/02:30am 10.0 9.7 8.6 91 0.7 CALM 0 0 0 0 1015.6 1015.5 0.0
21/02:00am 10.4 10.2 9.0 91 0.7 CALM 0 0 0 0 1016.0 1015.9 0.0
21/01:30am 10.7 10.5 9.1 90 0.8 CALM 0 0 0 0 1016.4 1016.3 0.0
21/01:00am 11.2 11.1 9.6 90 0.8 CALM 0 0 0 0 1016.7 1016.6 0.0
21/12:30am 11.2 11.1 9.5 89 0.9 CALM 0 0 0 0 1017.2 1017.1 0.0
21/12:00am 11.3 10.9 9.6 89 0.9 S 2 7 1 4 1017.5 1017.4 0.0
 
Date/Time
EDT
Tmp

°C
App
Tmp
°C
Dew
Point
°C
Rel
Hum
%
Delta-T

°C
Wind Press
QNH
hPa
Press
MSL
hPa
Rain
since
9 am
mm
Dir
 
Spd
km/h
Gust
km/h
Spd
kts
Gust
kts
20/11:30pm 12.0 12.1 10.1 88 1.0 CALM 0 0 0 0 1017.7 1017.6 0.0
20/11:00pm 12.6 12.8 10.5 87 1.1 CALM 0 0 0 0 1017.8 1017.7 0.0
20/10:30pm 13.3 13.6 10.8 85 1.3 CALM 0 0 0 0 1018.0 1017.9 0.0
20/10:00pm 13.6 13.8 10.6 82 1.6 CALM 0 2 0 1 1018.0 1017.9 0.0
20/09:30pm 14.7 14.5 11.7 82 1.6 S 4 4 2 2 1017.9 1017.8 0.0
20/09:00pm 15.0 14.4 11.6 80 1.8 S 6 7 3 4 1017.8 1017.7 0.0
20/08:30pm 15.8 15.0 11.8 77 2.2 S 7 9 4 5 1017.8 1017.7 0.0
20/08:00pm 16.6 15.6 12.2 75 2.4 SSW 9 15 5 8 1017.8 1017.7 0.0
20/07:30pm 17.2 15.8 12.1 72 2.8 SSW 11 17 6 9 1017.5 1017.4 0.0
20/07:00pm 17.4 15.5 11.9 70 3.0 SSW 13 20 7 11 1017.2 1017.1 0.0
20/06:30pm 17.7 15.4 11.9 69 3.2 SSW 15 22 8 12 1017.1 1017.0 0.0
20/06:00pm 18.0 15.3 11.8 67 3.4 SSW 17 24 9 13 1017.0 1016.9 0.0
20/05:30pm 18.5 16.1 12.7 69 3.2 SSW 17 24 9 13 1017.2 1017.1 0.0
20/05:00pm 18.1 15.1 12.1 68 3.3 SSW 19 24 10 13 1017.3 1017.2 0.0
20/04:30pm 18.4 15.4 11.9 66 3.6 SSW 19 26 10 14 1017.4 1017.3 0.0

Latest Capital City Observations: Canberra | Sydney | Melbourne | Brisbane | Adelaide | Perth | Hobart | Darwin

Other Formats:

Comma delimited format used in spreadsheet applications
http://www.bom.gov.au/fwo/IDV60901/IDV60901.94898.axf

JavaScript Object Notation format (JSON) in row-major order
http://www.bom.gov.au/fwo/IDV60901/IDV60901.94898.json